createdAt,value
2023-05-13T00:01:10.549Z,18.40
2023-05-13T00:03:37.098Z,18.40
2023-05-13T00:06:03.715Z,18.30
2023-05-13T00:08:30.280Z,18.30
2023-05-13T00:10:56.772Z,18.30
2023-05-13T00:13:23.274Z,18.40
2023-05-13T00:15:49.806Z,18.40
2023-05-13T00:18:16.350Z,18.30
2023-05-13T00:20:42.824Z,18.30
2023-05-13T00:23:09.324Z,18.30
2023-05-13T00:25:35.835Z,18.30
2023-05-13T00:28:02.343Z,18.30
2023-05-13T00:30:28.837Z,18.30
2023-05-13T00:32:55.377Z,18.30
2023-05-13T00:35:21.927Z,18.30
2023-05-13T00:37:48.405Z,18.40
2023-05-13T00:40:14.894Z,18.30
2023-05-13T00:42:41.368Z,18.30
2023-05-13T00:45:07.862Z,18.40
2023-05-13T00:47:34.366Z,18.40
2023-05-13T00:50:00.868Z,18.40
2023-05-13T00:52:27.319Z,18.30
2023-05-13T00:54:53.796Z,18.30
2023-05-13T00:57:20.262Z,18.30
2023-05-13T00:59:46.738Z,18.30
2023-05-13T01:02:13.216Z,18.30
2023-05-13T01:04:39.697Z,18.30
2023-05-13T01:07:06.193Z,18.30
2023-05-13T01:09:32.675Z,18.30
2023-05-13T01:11:59.169Z,18.30
2023-05-13T01:14:25.637Z,18.20
2023-05-13T01:16:52.231Z,18.20
2023-05-13T01:19:18.773Z,18.30
2023-05-13T01:21:45.269Z,18.20
2023-05-13T01:24:11.764Z,18.30
2023-05-13T01:26:38.275Z,18.30
2023-05-13T01:29:04.736Z,18.30
2023-05-13T01:31:31.366Z,18.30
2023-05-13T01:33:57.863Z,18.30
2023-05-13T01:36:24.352Z,18.40
2023-05-13T01:38:50.828Z,18.40
2023-05-13T01:41:17.315Z,18.40
2023-05-13T01:43:43.820Z,18.40
2023-05-13T01:46:10.295Z,18.40
2023-05-13T01:48:36.803Z,18.40
2023-05-13T01:51:03.281Z,18.40
2023-05-13T01:53:29.751Z,18.40
2023-05-13T01:55:56.223Z,18.40
2023-05-13T01:58:22.698Z,18.40
2023-05-13T02:00:49.167Z,18.30
2023-05-13T02:03:15.678Z,18.40
2023-05-13T02:05:42.188Z,18.40
2023-05-13T02:08:08.651Z,18.40
2023-05-13T02:10:35.142Z,18.40
2023-05-13T02:13:01.665Z,18.40
2023-05-13T02:15:28.144Z,18.40
2023-05-13T02:17:54.642Z,18.40
2023-05-13T02:20:21.361Z,18.40
2023-05-13T02:22:48.002Z,18.30
2023-05-13T02:25:14.479Z,18.40
2023-05-13T02:27:40.994Z,18.40
2023-05-13T02:30:07.473Z,18.40
2023-05-13T02:32:33.991Z,18.30
2023-05-13T02:35:00.481Z,18.30
2023-05-13T02:37:26.966Z,18.30
2023-05-13T02:39:53.449Z,18.20
2023-05-13T02:42:19.958Z,18.30
2023-05-13T02:44:46.439Z,18.30
2023-05-13T02:47:12.947Z,18.30
2023-05-13T02:49:39.457Z,18.30
2023-05-13T02:52:05.944Z,18.30
2023-05-13T02:54:32.418Z,18.30
2023-05-13T02:56:58.894Z,18.30
2023-05-13T02:59:25.361Z,18.30
2023-05-13T03:01:52.031Z,18.30
2023-05-13T03:04:18.584Z,18.30
2023-05-13T03:06:45.107Z,18.30
2023-05-13T03:09:11.580Z,18.20
2023-05-13T03:11:38.067Z,18.30
2023-05-13T03:14:04.540Z,18.20
2023-05-13T03:16:31.084Z,18.30
2023-05-13T03:18:57.711Z,18.30
2023-05-13T03:21:24.198Z,18.20
2023-05-13T03:23:50.700Z,18.20
2023-05-13T03:26:17.172Z,18.20
2023-05-13T03:28:43.668Z,18.20
2023-05-13T03:31:10.191Z,18.20
2023-05-13T03:33:36.724Z,18.20
2023-05-13T03:36:03.194Z,18.20
2023-05-13T03:38:29.679Z,18.20
2023-05-13T03:40:56.154Z,18.20
2023-05-13T03:43:22.638Z,18.20
2023-05-13T03:45:49.130Z,18.20
2023-05-13T03:48:15.597Z,18.20
2023-05-13T03:50:42.077Z,18.20
2023-05-13T03:53:08.576Z,18.20
2023-05-13T03:55:35.046Z,18.20
2023-05-13T03:58:01.533Z,18.20
2023-05-13T04:00:28.008Z,18.10
2023-05-13T04:02:54.633Z,18.10
2023-05-13T04:05:21.349Z,18.10
2023-05-13T04:07:47.852Z,18.20
2023-05-13T04:10:15.645Z,18.10
2023-05-13T04:12:42.446Z,18.10
2023-05-13T04:15:08.940Z,18.10
2023-05-13T04:17:35.480Z,18.20
2023-05-13T04:20:02.028Z,18.10
2023-05-13T04:22:28.498Z,18.10
2023-05-13T04:24:54.972Z,18.20
2023-05-13T04:27:21.438Z,18.20
2023-05-13T04:29:47.904Z,18.10
2023-05-13T04:32:14.478Z,18.10
2023-05-13T04:34:41.090Z,18.10
2023-05-13T04:37:07.546Z,18.10
2023-05-13T04:39:34.013Z,18.10
2023-05-13T04:42:00.487Z,18.10
2023-05-13T04:44:26.995Z,18.10
2023-05-13T04:46:53.454Z,18.20
2023-05-13T04:49:19.926Z,18.20
2023-05-13T04:51:46.772Z,18.30
2023-05-13T04:54:13.588Z,18.30
2023-05-13T04:56:40.065Z,18.40
2023-05-13T04:59:06.494Z,18.50
2023-05-13T05:01:33.019Z,18.50
2023-05-13T05:03:59.567Z,18.60
2023-05-13T05:06:26.160Z,18.60
2023-05-13T05:08:52.638Z,18.60
2023-05-13T05:11:19.128Z,18.70
2023-05-13T05:13:45.614Z,18.50
2023-05-13T05:16:12.117Z,18.50
2023-05-13T05:18:38.767Z,18.60
2023-05-13T05:21:05.300Z,18.50
2023-05-13T05:23:31.771Z,18.50
2023-05-13T05:26:10.479Z,18.50
2023-05-13T05:28:37.948Z,18.50
2023-05-13T05:31:09.412Z,18.50
2023-05-13T05:33:35.965Z,18.40
2023-05-13T05:36:02.451Z,18.40
2023-05-13T05:38:28.915Z,18.40
2023-05-13T05:40:55.422Z,18.40
2023-05-13T05:43:21.894Z,18.50
2023-05-13T05:45:48.436Z,18.40
2023-05-13T05:48:14.935Z,18.40
2023-05-13T05:50:41.521Z,18.30
2023-05-13T05:53:08.016Z,18.40
2023-05-13T05:55:34.544Z,18.30
2023-05-13T05:58:01.052Z,18.40
2023-05-13T06:00:27.518Z,18.30
2023-05-13T06:02:54.079Z,18.30
2023-05-13T06:05:20.580Z,18.20
2023-05-13T06:07:47.075Z,18.20
2023-05-13T06:10:13.577Z,18.30
2023-05-13T06:12:40.064Z,18.30
2023-05-13T06:15:06.571Z,18.30
2023-05-13T06:17:33.119Z,18.40
2023-05-13T06:19:59.587Z,18.30
2023-05-13T06:22:26.094Z,18.40
2023-05-13T06:24:52.573Z,18.40
2023-05-13T06:27:19.115Z,18.40
2023-05-13T06:29:45.592Z,18.40
2023-05-13T06:32:12.093Z,18.40
2023-05-13T06:34:38.580Z,18.40
2023-05-13T06:37:05.082Z,18.40
2023-05-13T06:39:31.554Z,18.40
2023-05-13T06:41:58.051Z,18.30
2023-05-13T06:44:24.548Z,18.30
2023-05-13T06:46:51.102Z,18.30
2023-05-13T06:49:17.623Z,18.30
2023-05-13T06:51:44.101Z,18.30
2023-05-13T06:54:10.602Z,18.20
2023-05-13T06:56:37.066Z,18.20
2023-05-13T06:59:03.554Z,18.30
2023-05-13T07:01:30.071Z,18.30
2023-05-13T07:03:56.591Z,18.30
2023-05-13T07:06:23.101Z,18.40
2023-05-13T07:08:49.580Z,18.40
2023-05-13T07:11:16.111Z,18.30
2023-05-13T07:13:42.616Z,18.30
2023-05-13T07:16:09.082Z,18.30
2023-05-13T07:18:35.702Z,18.40
2023-05-13T07:21:02.250Z,18.30
2023-05-13T07:23:28.754Z,18.30
2023-05-13T07:25:55.223Z,18.30
2023-05-13T07:28:21.713Z,18.20
2023-05-13T07:30:48.216Z,18.30
2023-05-13T07:33:14.727Z,18.30
2023-05-13T07:35:41.190Z,18.30
2023-05-13T07:38:07.666Z,18.30
2023-05-13T07:40:34.129Z,18.30
2023-05-13T07:43:00.614Z,18.30
2023-05-13T07:45:27.088Z,18.30
2023-05-13T07:47:53.667Z,18.30
2023-05-13T07:50:20.226Z,18.30
2023-05-13T07:52:46.719Z,18.30
2023-05-13T07:55:13.201Z,18.30
2023-05-13T07:57:39.692Z,18.30
2023-05-13T08:00:06.188Z,18.30
2023-05-13T08:02:32.683Z,18.30
2023-05-13T08:04:59.220Z,18.30
2023-05-13T08:07:25.798Z,18.30
2023-05-13T08:09:52.308Z,18.30
2023-05-13T08:12:18.776Z,18.30
2023-05-13T08:14:46.480Z,18.30
2023-05-13T08:17:14.086Z,18.30
2023-05-13T08:19:40.590Z,18.30
2023-05-13T08:22:07.049Z,18.30
2023-05-13T08:24:33.545Z,18.30
2023-05-13T08:27:00.039Z,18.30
2023-05-13T08:29:26.546Z,18.30
2023-05-13T08:31:53.036Z,18.30
2023-05-13T08:34:19.581Z,18.30
2023-05-13T08:36:46.049Z,18.30
2023-05-13T08:39:12.543Z,18.30
2023-05-13T08:41:39.037Z,18.40
2023-05-13T08:44:05.535Z,18.30
2023-05-13T08:46:32.072Z,18.40
2023-05-13T08:48:58.575Z,18.40
2023-05-13T08:51:25.052Z,18.40
2023-05-13T08:53:51.542Z,18.40
2023-05-13T08:56:18.078Z,18.30
2023-05-13T08:58:44.568Z,18.40
2023-05-13T09:01:11.078Z,18.40
2023-05-13T09:03:37.607Z,18.40
2023-05-13T09:06:04.075Z,18.40
2023-05-13T09:08:30.565Z,18.40
2023-05-13T09:10:57.111Z,18.40
2023-05-13T09:13:23.616Z,18.40
2023-05-13T09:15:50.208Z,18.50
2023-05-13T09:18:18.719Z,18.50
2023-05-13T09:20:45.701Z,18.50
2023-05-13T09:23:12.191Z,18.50
2023-05-13T09:25:38.723Z,18.50
2023-05-13T09:28:05.195Z,18.50
2023-05-13T09:30:31.683Z,18.50
2023-05-13T09:32:58.283Z,18.50
2023-05-13T09:35:24.856Z,18.50
2023-05-13T09:37:51.368Z,18.50
2023-05-13T09:40:17.915Z,18.50
2023-05-13T09:42:44.408Z,18.50
2023-05-13T09:45:11.017Z,18.60
2023-05-13T09:47:37.546Z,18.60
2023-05-13T09:50:04.047Z,18.60
2023-05-13T09:52:30.469Z,18.60
2023-05-13T09:54:56.963Z,18.50
2023-05-13T09:57:23.436Z,18.50
2023-05-13T09:59:49.927Z,18.60
2023-05-13T10:02:16.405Z,18.60
2023-05-13T10:04:42.928Z,18.60
2023-05-13T10:07:09.430Z,18.60
2023-05-13T10:09:35.931Z,18.60
2023-05-13T10:12:02.419Z,18.60
2023-05-13T10:14:28.874Z,18.70
2023-05-13T10:16:55.393Z,18.60
2023-05-13T10:19:21.906Z,18.60
2023-05-13T10:21:48.401Z,18.70
2023-05-13T10:24:14.947Z,18.70
2023-05-13T10:26:41.467Z,18.70
2023-05-13T10:29:07.934Z,18.70
2023-05-13T10:31:34.457Z,18.70
2023-05-13T10:34:00.975Z,18.70
2023-05-13T10:36:27.452Z,18.70
2023-05-13T10:38:53.931Z,18.70
2023-05-13T10:41:20.412Z,18.70
2023-05-13T10:43:46.937Z,18.70
2023-05-13T10:46:13.415Z,18.70
2023-05-13T10:48:39.996Z,18.80
2023-05-13T10:51:06.504Z,18.70
2023-05-13T10:53:32.972Z,18.70
2023-05-13T10:55:59.453Z,18.70
2023-05-13T10:58:25.927Z,18.80
2023-05-13T11:00:52.403Z,18.80
2023-05-13T11:03:19.141Z,18.80
2023-05-13T11:05:45.672Z,18.70
2023-05-13T11:08:12.155Z,18.80
2023-05-13T11:10:38.636Z,18.80
2023-05-13T11:13:05.149Z,18.80
2023-05-13T11:15:31.618Z,18.80
2023-05-13T11:17:58.232Z,18.80
2023-05-13T11:20:24.752Z,18.80
2023-05-13T11:22:51.241Z,18.80
2023-05-13T11:25:17.705Z,18.80
2023-05-13T11:27:44.395Z,18.80
2023-05-13T11:30:10.892Z,18.80
2023-05-13T11:32:37.390Z,18.90
2023-05-13T11:35:03.910Z,18.90
2023-05-13T11:37:30.387Z,18.80
2023-05-13T11:39:56.882Z,18.90
2023-05-13T11:42:23.357Z,18.90
2023-05-13T11:44:51.672Z,18.90
2023-05-13T11:47:18.130Z,18.90
2023-05-13T11:49:44.601Z,18.90
2023-05-13T11:52:15.714Z,18.90
2023-05-13T11:54:42.189Z,18.80
2023-05-13T11:57:08.657Z,18.90
2023-05-13T11:59:45.179Z,18.90
2023-05-13T12:02:14.609Z,18.90
2023-05-13T12:04:41.155Z,18.90
2023-05-13T12:07:07.629Z,18.90
2023-05-13T12:09:34.120Z,19.00
2023-05-13T12:12:03.763Z,18.90
2023-05-13T12:14:30.232Z,18.90
2023-05-13T12:16:56.705Z,19.00
2023-05-13T12:19:23.171Z,18.90
2023-05-13T12:21:49.665Z,19.00
2023-05-13T12:24:16.153Z,18.90
2023-05-13T12:26:42.640Z,19.00
2023-05-13T12:29:09.102Z,18.90
2023-05-13T12:31:35.598Z,19.00
2023-05-13T12:34:02.126Z,19.00
2023-05-13T12:36:28.669Z,19.00
2023-05-13T12:38:56.834Z,19.00
2023-05-13T12:41:24.730Z,19.00
2023-05-13T12:43:51.211Z,19.00
2023-05-13T12:46:17.717Z,19.00
2023-05-13T12:48:44.260Z,19.00
2023-05-13T12:51:10.751Z,19.00
2023-05-13T12:53:37.226Z,19.00
2023-05-13T12:56:03.722Z,19.10
2023-05-13T12:58:30.294Z,19.00
2023-05-13T13:00:56.814Z,19.00
2023-05-13T13:03:24.570Z,19.00
2023-05-13T13:05:51.255Z,19.10
2023-05-13T13:08:17.719Z,19.00
2023-05-13T13:10:44.203Z,19.10
2023-05-13T13:13:10.682Z,19.10
2023-05-13T13:15:37.163Z,19.10
2023-05-13T13:18:03.690Z,19.00
2023-05-13T13:20:30.225Z,19.10
2023-05-13T13:22:56.700Z,19.10
2023-05-13T13:25:23.485Z,19.10
2023-05-13T13:27:51.731Z,19.10
2023-05-13T13:30:18.201Z,19.10
2023-05-13T13:32:44.687Z,19.10
2023-05-13T13:35:11.188Z,19.10
2023-05-13T13:37:38.113Z,19.10
2023-05-13T13:40:04.700Z,19.10
2023-05-13T13:42:43.518Z,19.10
2023-05-13T13:45:10.873Z,19.00
2023-05-13T13:47:37.420Z,19.10
2023-05-13T13:50:03.937Z,19.10
2023-05-13T13:52:30.432Z,19.10
2023-05-13T13:54:56.897Z,19.20
2023-05-13T13:57:23.380Z,19.20
2023-05-13T13:59:49.931Z,19.10
2023-05-13T14:02:16.494Z,19.10
2023-05-13T14:04:43.009Z,19.10
2023-05-13T14:07:09.553Z,19.10
2023-05-13T14:09:36.012Z,19.10
2023-05-13T14:12:02.501Z,19.10
2023-05-13T14:14:28.985Z,19.10
2023-05-13T14:16:55.466Z,19.10
2023-05-13T14:19:21.948Z,19.10
2023-05-13T14:21:48.453Z,19.10
2023-05-13T14:24:14.936Z,19.10
2023-05-13T14:26:41.419Z,19.10
2023-05-13T14:29:07.890Z,19.10
2023-05-13T14:31:34.454Z,19.10
2023-05-13T14:34:00.975Z,19.10
2023-05-13T14:36:27.471Z,19.10
2023-05-13T14:38:53.987Z,19.10
2023-05-13T14:41:20.458Z,19.10
2023-05-13T14:43:46.962Z,19.10
2023-05-13T14:46:13.531Z,19.10
2023-05-13T14:48:40.033Z,19.10
2023-05-13T14:51:06.518Z,19.10
2023-05-13T14:53:33.098Z,19.10
2023-05-13T14:55:59.581Z,19.10
2023-05-13T14:58:26.078Z,19.10
2023-05-13T15:00:52.583Z,19.10
2023-05-13T15:03:19.175Z,19.10
2023-05-13T15:05:45.643Z,19.10
2023-05-13T15:08:12.114Z,19.10
2023-05-13T15:10:38.608Z,19.10
2023-05-13T15:13:05.106Z,19.10
2023-05-13T15:15:31.570Z,19.10
2023-05-13T15:17:58.081Z,19.10
2023-05-13T15:20:24.721Z,19.10
2023-05-13T15:22:51.225Z,19.10
2023-05-13T15:25:17.702Z,19.10
2023-05-13T15:27:44.862Z,19.10
2023-05-13T15:30:11.362Z,19.10
2023-05-13T15:32:37.896Z,19.10
2023-05-13T15:35:04.432Z,19.10
2023-05-13T15:37:30.909Z,19.10
2023-05-13T15:39:57.389Z,19.10
2023-05-13T15:42:23.861Z,19.20
2023-05-13T15:44:50.348Z,19.20
2023-05-13T15:47:16.932Z,19.20
2023-05-13T15:49:43.483Z,19.20
2023-05-13T15:52:09.956Z,19.20
2023-05-13T15:54:36.448Z,19.20
2023-05-13T15:57:02.966Z,19.20
2023-05-13T15:59:29.482Z,19.20
2023-05-13T16:01:56.015Z,19.20
2023-05-13T16:04:22.581Z,19.20
2023-05-13T16:06:49.096Z,19.20
2023-05-13T16:09:15.572Z,19.10
2023-05-13T16:11:42.027Z,19.10
2023-05-13T16:14:08.510Z,19.20
2023-05-13T16:16:35.125Z,19.10
2023-05-13T16:19:01.773Z,19.20
2023-05-13T16:21:28.262Z,19.20
2023-05-13T16:23:54.726Z,19.20
2023-05-13T16:26:21.208Z,19.20
2023-05-13T16:28:47.683Z,19.20
2023-05-13T16:31:14.181Z,19.20
2023-05-13T16:33:40.686Z,19.20
2023-05-13T16:36:07.148Z,19.10
2023-05-13T16:38:33.631Z,19.10
2023-05-13T16:41:00.146Z,19.20
2023-05-13T16:43:26.637Z,19.20
2023-05-13T16:45:53.149Z,19.20
2023-05-13T16:48:19.723Z,19.20
2023-05-13T16:50:46.260Z,19.20
2023-05-13T16:53:12.730Z,19.10
2023-05-13T16:55:39.341Z,19.10
2023-05-13T16:58:05.816Z,19.10
2023-05-13T17:00:32.303Z,19.10
2023-05-13T17:02:58.867Z,19.10
2023-05-13T17:05:25.461Z,19.10
2023-05-13T17:07:51.926Z,19.10
2023-05-13T17:10:18.405Z,19.10
2023-05-13T17:12:44.882Z,19.10
2023-05-13T17:15:11.371Z,19.10
2023-05-13T17:17:37.885Z,19.10
2023-05-13T17:20:04.362Z,19.20
2023-05-13T17:22:30.825Z,19.20
2023-05-13T17:24:57.300Z,19.20
2023-05-13T17:27:23.756Z,19.20
2023-05-13T17:29:50.290Z,19.10
2023-05-13T17:32:16.742Z,19.10
2023-05-13T17:34:43.222Z,19.20
2023-05-13T17:37:09.689Z,19.10
2023-05-13T17:39:36.169Z,19.10
2023-05-13T17:42:02.648Z,19.10
2023-05-13T17:44:29.132Z,19.10
2023-05-13T17:46:55.692Z,19.10
2023-05-13T17:49:22.172Z,19.20
2023-05-13T17:51:48.642Z,19.20
2023-05-13T17:54:15.096Z,19.10
2023-05-13T17:56:41.594Z,19.10
2023-05-13T17:59:08.071Z,19.10
2023-05-13T18:01:34.593Z,19.10
2023-05-13T18:04:01.090Z,19.10
2023-05-13T18:06:27.585Z,19.10
2023-05-13T18:08:54.051Z,19.10
2023-05-13T18:11:20.536Z,19.20
2023-05-13T18:13:47.018Z,19.10
2023-05-13T18:16:13.550Z,19.10
2023-05-13T18:18:40.088Z,19.10
2023-05-13T18:21:06.573Z,19.10
2023-05-13T18:23:33.048Z,19.20
2023-05-13T18:25:59.554Z,19.10
2023-05-13T18:28:26.039Z,19.10
2023-05-13T18:30:52.511Z,19.10
2023-05-13T18:33:18.977Z,19.10
2023-05-13T18:35:45.471Z,19.10
2023-05-13T18:38:13.096Z,19.10
2023-05-13T18:40:39.569Z,19.10
2023-05-13T18:43:06.042Z,19.10
2023-05-13T18:45:32.536Z,19.10
2023-05-13T18:47:59.078Z,19.10
2023-05-13T18:50:25.629Z,19.10
2023-05-13T18:52:52.107Z,19.10
2023-05-13T18:55:18.580Z,19.10
2023-05-13T18:57:45.077Z,19.10
2023-05-13T19:00:11.561Z,19.10
2023-05-13T19:02:38.186Z,19.10
2023-05-13T19:05:04.842Z,19.10
2023-05-13T19:07:31.360Z,19.10
2023-05-13T19:09:57.830Z,19.10
2023-05-13T19:12:24.321Z,19.10
2023-05-13T19:14:50.812Z,19.10
2023-05-13T19:17:17.531Z,19.00
2023-05-13T19:19:44.105Z,19.10
2023-05-13T19:22:10.588Z,19.10
2023-05-13T19:24:37.044Z,19.00
2023-05-13T19:27:03.530Z,19.00
2023-05-13T19:29:30.014Z,19.00
2023-05-13T19:31:56.500Z,19.00
2023-05-13T19:34:22.967Z,19.00
2023-05-13T19:36:49.445Z,19.00
2023-05-13T19:39:15.924Z,19.00
2023-05-13T19:41:42.399Z,19.10
2023-05-13T19:44:08.932Z,19.00
2023-05-13T19:46:35.462Z,19.00
2023-05-13T19:49:01.979Z,19.00
2023-05-13T19:51:28.466Z,19.00
2023-05-13T19:53:54.978Z,19.00
2023-05-13T19:56:21.461Z,19.00
2023-05-13T19:58:47.969Z,19.10
2023-05-13T20:01:14.438Z,19.10
2023-05-13T20:03:41.010Z,19.00
2023-05-13T20:06:07.588Z,19.10
2023-05-13T20:08:34.065Z,19.10
2023-05-13T20:11:00.560Z,19.10
2023-05-13T20:13:27.038Z,19.10
2023-05-13T20:15:53.495Z,19.10
2023-05-13T20:18:20.000Z,19.10
2023-05-13T20:20:46.501Z,19.00
2023-05-13T20:23:14.544Z,19.00
2023-05-13T20:25:41.173Z,19.10
2023-05-13T20:28:07.688Z,19.10
2023-05-13T20:30:34.155Z,19.10
2023-05-13T20:33:00.674Z,19.10
2023-05-13T20:35:27.192Z,19.10
2023-05-13T20:37:53.666Z,19.10
2023-05-13T20:40:20.229Z,19.10
2023-05-13T20:42:46.790Z,19.10
2023-05-13T20:45:13.278Z,19.10
2023-05-13T20:47:39.757Z,19.10
2023-05-13T20:50:06.267Z,19.10
2023-05-13T20:52:32.734Z,19.10
2023-05-13T20:54:59.217Z,19.10
2023-05-13T20:57:25.711Z,19.10
2023-05-13T20:59:52.214Z,19.10
2023-05-13T21:02:18.682Z,19.10
2023-05-13T21:04:45.181Z,19.10
2023-05-13T21:07:11.654Z,19.10
2023-05-13T21:09:38.153Z,19.10
2023-05-13T21:12:04.606Z,19.10
2023-05-13T21:14:31.096Z,19.10
2023-05-13T21:16:57.580Z,19.10
2023-05-13T21:19:24.094Z,19.10
2023-05-13T21:21:50.560Z,19.10
2023-05-13T21:24:17.101Z,19.10
2023-05-13T21:26:43.570Z,19.10
2023-05-13T21:29:10.178Z,19.10
2023-05-13T21:31:36.732Z,19.10
2023-05-13T21:34:03.256Z,19.10
2023-05-13T21:36:29.755Z,19.10
2023-05-13T21:38:56.235Z,19.10
2023-05-13T21:41:22.729Z,19.10
2023-05-13T21:43:49.208Z,19.10
2023-05-13T21:46:15.726Z,19.10
2023-05-13T21:48:42.232Z,19.10
2023-05-13T21:51:08.734Z,19.10
2023-05-13T21:53:35.201Z,19.10
2023-05-13T21:56:01.681Z,19.10
2023-05-13T21:58:28.158Z,19.10
2023-05-13T22:00:54.704Z,19.00
2023-05-13T22:03:21.304Z,19.00
2023-05-13T22:05:47.870Z,19.00
2023-05-13T22:08:16.192Z,19.00
2023-05-13T22:10:42.678Z,19.00
2023-05-13T22:13:09.104Z,19.00
2023-05-13T22:15:35.572Z,19.00
2023-05-13T22:18:02.133Z,19.00
2023-05-13T22:20:28.658Z,19.00
2023-05-13T22:22:55.119Z,19.00
2023-05-13T22:25:21.590Z,19.00
2023-05-13T22:27:48.054Z,19.00
2023-05-13T22:30:14.534Z,19.00
2023-05-13T22:32:41.023Z,19.00
2023-05-13T22:35:07.493Z,19.00
2023-05-13T22:37:33.986Z,19.00
2023-05-13T22:40:00.481Z,19.00
2023-05-13T22:42:26.985Z,19.00
2023-05-13T22:44:58.270Z,18.90
2023-05-13T22:47:24.791Z,19.00
2023-05-13T22:49:51.268Z,18.90
2023-05-13T22:52:17.798Z,18.90
2023-05-13T22:54:44.289Z,18.80
2023-05-13T22:57:10.768Z,18.90
2023-05-13T22:59:37.244Z,18.90
2023-05-13T23:02:03.846Z,18.80
2023-05-13T23:04:30.525Z,18.80
2023-05-13T23:06:57.168Z,18.80
2023-05-13T23:09:23.639Z,18.80
2023-05-13T23:11:50.107Z,18.80
2023-05-13T23:14:16.569Z,18.80
2023-05-13T23:16:43.117Z,18.80
2023-05-13T23:19:09.701Z,18.80
2023-05-13T23:21:36.197Z,18.80
2023-05-13T23:24:02.715Z,18.70
2023-05-13T23:26:29.191Z,18.70
2023-05-13T23:28:55.689Z,18.70
2023-05-13T23:31:22.215Z,18.70
2023-05-13T23:33:48.725Z,18.80
2023-05-13T23:36:15.208Z,18.80
2023-05-13T23:38:41.687Z,18.80
2023-05-13T23:41:08.155Z,18.70
2023-05-13T23:43:34.645Z,18.70
2023-05-13T23:46:01.163Z,18.70
2023-05-13T23:48:27.696Z,18.60
2023-05-13T23:50:54.156Z,18.60
2023-05-13T23:53:20.630Z,18.60
2023-05-13T23:55:47.113Z,18.60
2023-05-13T23:58:13.610Z,18.60
